Victoria, British Columbia

3:44 AM PDT on August 28, 2015 (GMT -0700)
Victoria International | | Change Station
CLOSE
Current Station
Airport
Location: Victoria,
Elevation: 62 ft
Nearby Weather Stations

Elev 62 ft 48.65 °N, 123.43 °W | Updated 44 minutes ago

Light Rain
Light Rain
63 °F
Feels Like 63 °F
N
4
Wind Variable Wind from NW

Today is forecast to be nearly the same temperature as yesterday.

Today
High -- | Low -- °F
--% Chance of Precip.
Yesterday
High -- | Low -- °F
Precip. -- in
6:25 AM 8:03 PM
Waxing Gibbous, 97% visible
Pressure 29.93 in
Visibility 20.0 miles
Clouds Few 7200 ft
Scattered Clouds 9000 ft
Overcast 11000 ft
Dew Point 57 °F
Humidity 82%
Rainfall 0.00 in
Snow Depth Not available.
UV 0 out of 12
Pollen Not available.
Air Quality Not available.
Flu Activity Not available.
METAR CYYJ 281000Z 32003KT 240V330 20SM -RA FEW072 SCT090 OVC110 17/14 A2993 RMK AC2AC2AC4 SLP133 DENSITY ALT 200FT
Pressure 29.93 in
Visibility 20.0 miles
Clouds Few 7200 ft
Scattered Clouds 9000 ft
Overcast 11000 ft
Dew Point 57 °F
Humidity 82%
Rainfall 0.00 in
Snow Depth Not available.
UV 0 out of 12
Pollen Not available.
Air Quality Not available.
Flu Activity Not available.
METAR CYYJ 281000Z 32003KT 240V330 20SM -RA FEW072 SCT090 OVC110 17/14 A2993 RMK AC2AC2AC4 SLP133 DENSITY ALT 200FT

10-Day Weather Forecast

×

Almanac

Astronomy

Aug. 28, 2015 Rise Set
Actual Time
Civil Twilight
Nautical Twilight
Astronomical Twilight
Moon
Length of Visible Light
Length of Day
Tomorrow will be .
, % of the Moon is Illuminated

Today's Extremes

Country Highs Country Lows

Community

WunderPhotos

Upload Photos

1,850,368 photos uploaded!

WunderBlogs® & News

Nearby

Air Quality

  Air Quality AQ Index Pollutant
Not available.

Snow Depth

Station Depth Elevation

Earthquake Activity

City Distance Mag. Time & Date
Minimum magnitude displayed is 2.5.

Coastal Water Temperatures

Place Temperature

Stations

Nearby Weather Stations

Station Location Temp. Windchill Dew Point Humidity Wind Precip. Elev Updated Type